createdAt,value
2023-09-15T00:00:22.129Z,1.20
2023-09-15T00:01:24.680Z,1.63
2023-09-15T00:02:27.172Z,1.60
2023-09-15T00:03:29.832Z,1.90
2023-09-15T00:04:33.567Z,1.98
2023-09-15T00:05:36.680Z,1.63
2023-09-15T00:06:39.395Z,1.35
2023-09-15T00:07:41.749Z,1.40
2023-09-15T00:08:44.022Z,1.67
2023-09-15T00:09:46.342Z,1.85
2023-09-15T00:10:49.477Z,1.75
2023-09-15T00:11:53.030Z,1.85
2023-09-15T00:12:55.589Z,1.52
2023-09-15T00:13:57.996Z,1.60
2023-09-15T00:15:01.122Z,1.52
2023-09-15T00:16:03.673Z,1.67
2023-09-15T00:17:06.928Z,1.45
2023-09-15T00:18:09.453Z,1.80
2023-09-15T00:19:15.897Z,1.75
2023-09-15T00:20:18.769Z,1.98
2023-09-15T00:21:21.579Z,1.70
2023-09-15T00:22:23.984Z,1.85
2023-09-15T00:23:26.688Z,1.88
2023-09-15T00:24:29.894Z,1.40
2023-09-15T00:25:32.262Z,1.13
2023-09-15T00:26:34.940Z,1.70
2023-09-15T00:27:38.122Z,1.83
2023-09-15T00:28:40.940Z,1.38
2023-09-15T00:29:43.347Z,1.77
2023-09-15T00:30:45.767Z,1.52
2023-09-15T00:31:48.302Z,1.90
2023-09-15T00:32:51.308Z,1.60
2023-09-15T00:33:54.222Z,1.92
2023-09-15T00:34:56.731Z,1.73
2023-09-15T00:35:59.101Z,1.77
2023-09-15T00:37:01.636Z,1.90
2023-09-15T00:38:05.219Z,1.73
2023-09-15T00:39:07.616Z,1.42
2023-09-15T00:40:11.542Z,1.77
2023-09-15T00:41:14.701Z,1.70
2023-09-15T00:42:19.950Z,1.73
2023-09-15T00:43:22.245Z,1.83
2023-09-15T00:44:24.566Z,1.52
2023-09-15T00:45:27.005Z,1.67
2023-09-15T00:46:31.892Z,1.60
2023-09-15T00:47:37.584Z,1.85
2023-09-15T00:48:41.128Z,1.80
2023-09-15T00:49:43.691Z,1.65
2023-09-15T00:50:47.310Z,1.33
2023-09-15T00:51:50.020Z,1.88
2023-09-15T00:52:55.882Z,1.40
2023-09-15T00:53:58.565Z,1.45
2023-09-15T00:55:02.059Z,1.80
2023-09-15T00:56:04.945Z,1.58
2023-09-15T00:57:07.862Z,1.52
2023-09-15T00:58:13.574Z,1.77
2023-09-15T00:59:16.190Z,1.33
2023-09-15T01:00:20.646Z,1.63
2023-09-15T01:01:23.082Z,1.23
2023-09-15T01:02:25.658Z,1.30
2023-09-15T01:03:31.947Z,1.35
2023-09-15T01:04:34.901Z,1.70
2023-09-15T01:05:37.777Z,1.70
2023-09-15T01:06:40.413Z,1.70
2023-09-15T01:07:43.202Z,2.03
2023-09-15T01:08:46.475Z,1.77
2023-09-15T01:09:49.062Z,1.42
2023-09-15T01:10:51.421Z,1.45
2023-09-15T01:11:54.040Z,1.45
2023-09-15T01:12:56.759Z,1.73
2023-09-15T01:13:59.287Z,1.83
2023-09-15T01:15:03.872Z,1.27
2023-09-15T01:16:12.631Z,1.38
2023-09-15T01:17:22.824Z,1.80
2023-09-15T01:18:46.264Z,1.70
2023-09-15T01:20:15.180Z,1.38
2023-09-15T01:21:35.842Z,1.25
2023-09-15T01:22:47.037Z,1.50
2023-09-15T01:24:37.853Z,1.67
2023-09-15T01:25:42.845Z,1.90
2023-09-15T01:27:18.653Z,1.67
2023-09-15T01:28:39.490Z,1.45
2023-09-15T01:29:55.614Z,1.60
2023-09-15T01:30:58.010Z,1.30
2023-09-15T01:32:02.076Z,1.67
2023-09-15T01:33:06.654Z,1.40
2023-09-15T01:34:09.178Z,1.85
2023-09-15T01:35:11.696Z,1.67
2023-09-15T01:36:13.981Z,1.42
2023-09-15T01:37:16.528Z,1.52
2023-09-15T01:38:19.059Z,1.40
2023-09-15T01:39:21.847Z,2.00
2023-09-15T01:40:24.174Z,1.20
2023-09-15T01:41:27.192Z,1.52
2023-09-15T01:42:29.810Z,1.20
2023-09-15T01:43:33.679Z,1.30
2023-09-15T01:44:36.052Z,1.65
2023-09-15T01:45:38.740Z,1.88
2023-09-15T01:46:41.232Z,1.75
2023-09-15T01:47:43.689Z,1.55
2023-09-15T01:48:46.828Z,1.73
2023-09-15T01:49:52.962Z,1.38
2023-09-15T01:50:57.085Z,1.67
2023-09-15T01:51:59.776Z,1.73
2023-09-15T01:53:02.825Z,1.55
2023-09-15T01:54:05.709Z,1.23
2023-09-15T01:55:09.249Z,1.58
2023-09-15T01:56:11.770Z,1.83
2023-09-15T01:57:14.068Z,1.70
2023-09-15T01:58:16.606Z,1.73
2023-09-15T01:59:18.999Z,1.33
2023-09-15T02:00:21.319Z,1.38
2023-09-15T02:01:23.832Z,1.80
2023-09-15T02:02:27.104Z,1.48
2023-09-15T02:03:29.540Z,1.60
2023-09-15T02:04:32.337Z,2.20
2023-09-15T02:05:34.779Z,1.60
2023-09-15T02:06:37.191Z,1.48
2023-09-15T02:07:39.648Z,1.80
2023-09-15T02:08:41.963Z,1.33
2023-09-15T02:09:44.450Z,1.73
2023-09-15T02:10:46.775Z,1.70
2023-09-15T02:11:49.179Z,1.65
2023-09-15T02:12:52.075Z,1.50
2023-09-15T02:13:54.516Z,1.50
2023-09-15T02:14:57.002Z,1.63
2023-09-15T02:15:59.392Z,1.80
2023-09-15T02:17:02.186Z,1.65
2023-09-15T02:18:05.211Z,1.92
2023-09-15T02:19:07.910Z,1.70
2023-09-15T02:20:13.436Z,1.80
2023-09-15T02:21:15.745Z,1.80
2023-09-15T02:22:18.638Z,1.38
2023-09-15T02:23:21.046Z,1.63
2023-09-15T02:24:23.299Z,1.85
2023-09-15T02:25:26.049Z,1.40
2023-09-15T02:26:28.479Z,1.77
2023-09-15T02:27:32.180Z,1.90
2023-09-15T02:28:35.721Z,1.90
2023-09-15T02:29:38.094Z,1.38
2023-09-15T02:30:40.710Z,1.60
2023-09-15T02:31:43.268Z,1.70
2023-09-15T02:32:45.923Z,1.60
2023-09-15T02:33:51.385Z,1.40
2023-09-15T02:34:54.324Z,1.50
2023-09-15T02:35:57.036Z,1.60
2023-09-15T02:37:00.224Z,1.55
2023-09-15T02:38:02.805Z,1.85
2023-09-15T02:39:05.469Z,1.73
2023-09-15T02:40:10.366Z,1.42
2023-09-15T02:41:12.813Z,1.27
2023-09-15T02:42:15.525Z,1.75
2023-09-15T02:43:17.886Z,1.60
2023-09-15T02:44:20.668Z,1.90
2023-09-15T02:45:24.036Z,1.60
2023-09-15T02:46:28.165Z,1.58
2023-09-15T02:47:31.388Z,1.45
2023-09-15T02:48:34.289Z,1.70
2023-09-15T02:49:37.268Z,1.70
2023-09-15T02:50:43.615Z,1.80
2023-09-15T02:51:49.139Z,1.77
2023-09-15T02:52:52.522Z,1.73
2023-09-15T02:53:57.823Z,1.70
2023-09-15T02:55:00.317Z,1.70
2023-09-15T02:56:06.649Z,1.90
2023-09-15T02:57:12.184Z,1.98
2023-09-15T02:58:14.903Z,1.83
2023-09-15T02:59:17.233Z,1.50
2023-09-15T03:00:20.943Z,2.05
2023-09-15T03:01:24.018Z,2.13
2023-09-15T03:02:27.032Z,1.80
2023-09-15T03:03:30.888Z,1.63
2023-09-15T03:04:33.808Z,1.83
2023-09-15T03:05:36.619Z,1.40
2023-09-15T03:06:40.867Z,1.67
2023-09-15T03:07:44.159Z,1.60
2023-09-15T03:08:49.083Z,1.70
2023-09-15T03:09:51.685Z,1.77
2023-09-15T03:10:54.479Z,2.00
2023-09-15T03:11:57.089Z,1.40
2023-09-15T03:12:59.568Z,1.80
2023-09-15T03:14:02.337Z,1.77
2023-09-15T03:15:07.861Z,1.75
2023-09-15T03:16:11.413Z,1.88
2023-09-15T03:17:14.938Z,1.92
2023-09-15T03:18:17.396Z,1.70
2023-09-15T03:19:20.645Z,1.67
2023-09-15T03:20:23.211Z,1.55
2023-09-15T03:21:25.679Z,1.52
2023-09-15T03:22:28.969Z,1.60
2023-09-15T03:23:31.953Z,2.00
2023-09-15T03:24:34.841Z,1.60
2023-09-15T03:25:37.529Z,1.45
2023-09-15T03:26:41.362Z,1.55
2023-09-15T03:27:43.807Z,1.42
2023-09-15T03:28:46.316Z,1.60
2023-09-15T03:29:48.973Z,1.42
2023-09-15T03:30:51.322Z,1.98
2023-09-15T03:31:53.717Z,1.65
2023-09-15T03:32:56.767Z,1.55
2023-09-15T03:33:59.505Z,1.80
2023-09-15T03:35:02.173Z,1.40
2023-09-15T03:36:04.950Z,1.90
2023-09-15T03:37:07.459Z,1.63
2023-09-15T03:38:10.387Z,1.75
2023-09-15T03:39:12.901Z,2.10
2023-09-15T03:40:15.397Z,1.90
2023-09-15T03:41:17.860Z,2.35
2023-09-15T03:42:20.328Z,2.08
2023-09-15T03:43:22.872Z,1.63
2023-09-15T03:44:25.416Z,1.65
2023-09-15T03:45:30.326Z,1.70
2023-09-15T03:46:33.739Z,2.17
2023-09-15T03:47:36.430Z,1.65
2023-09-15T03:48:39.680Z,1.90
2023-09-15T03:49:42.122Z,2.08
2023-09-15T03:50:44.875Z,2.22
2023-09-15T03:51:48.252Z,1.58
2023-09-15T03:52:50.923Z,2.10
2023-09-15T03:53:53.769Z,1.70
2023-09-15T03:55:02.180Z,1.80
2023-09-15T03:56:05.171Z,2.10
2023-09-15T03:57:07.998Z,1.70
2023-09-15T03:58:11.219Z,1.60
2023-09-15T03:59:14.137Z,1.85
2023-09-15T04:00:20.991Z,2.20
2023-09-15T04:01:25.098Z,1.80
2023-09-15T04:02:30.239Z,1.55
2023-09-15T04:03:32.660Z,2.22
2023-09-15T04:04:35.045Z,1.63
2023-09-15T04:05:38.465Z,1.88
2023-09-15T04:06:41.020Z,1.80
2023-09-15T04:07:43.842Z,1.80
2023-09-15T04:08:48.178Z,1.50
2023-09-15T04:09:50.845Z,1.58
2023-09-15T04:10:53.170Z,1.98
2023-09-15T04:11:55.983Z,2.22
2023-09-15T04:12:58.406Z,2.15
2023-09-15T04:14:00.832Z,1.98
2023-09-15T04:15:05.820Z,2.17
2023-09-15T04:16:08.425Z,2.10
2023-09-15T04:17:11.682Z,1.92
2023-09-15T04:18:14.927Z,2.10
2023-09-15T04:19:17.676Z,2.30
2023-09-15T04:20:30.915Z,1.65
2023-09-15T04:21:43.820Z,2.13
2023-09-15T04:22:46.212Z,2.10
2023-09-15T04:23:48.787Z,2.05
2023-09-15T04:24:51.190Z,1.85
2023-09-15T04:25:53.737Z,1.85
2023-09-15T04:26:56.112Z,2.03
2023-09-15T04:27:58.582Z,2.10
2023-09-15T04:29:00.985Z,1.52
2023-09-15T04:30:04.325Z,2.00
2023-09-15T04:31:12.690Z,1.75
2023-09-15T04:32:15.173Z,1.80
2023-09-15T04:33:17.997Z,1.75
2023-09-15T04:34:23.140Z,1.85
2023-09-15T04:35:26.099Z,1.80
2023-09-15T04:36:28.773Z,2.30
2023-09-15T04:37:32.312Z,1.75
2023-09-15T04:38:34.840Z,1.60
2023-09-15T04:39:37.465Z,1.50
2023-09-15T04:40:39.886Z,2.30
2023-09-15T04:41:42.601Z,1.45
2023-09-15T04:42:46.258Z,1.83
2023-09-15T04:43:48.849Z,1.85
2023-09-15T04:44:51.455Z,1.98
2023-09-15T04:45:57.818Z,1.85
2023-09-15T04:47:01.782Z,2.08
2023-09-15T04:48:05.144Z,1.92
2023-09-15T04:49:07.674Z,1.92
2023-09-15T04:50:10.254Z,2.08
2023-09-15T04:51:12.546Z,1.90
2023-09-15T04:52:15.150Z,2.05
2023-09-15T04:53:17.446Z,2.13
2023-09-15T04:54:19.832Z,1.90
2023-09-15T04:55:22.418Z,2.10
2023-09-15T04:56:25.505Z,1.67
2023-09-15T04:57:27.868Z,1.70
2023-09-15T04:58:30.714Z,1.60
2023-09-15T04:59:33.181Z,2.35
2023-09-15T05:00:36.037Z,2.65
2023-09-15T05:01:40.864Z,1.67
2023-09-15T05:02:46.562Z,1.40
2023-09-15T05:03:51.124Z,1.80
2023-09-15T05:04:56.511Z,2.40
2023-09-15T05:05:58.953Z,1.85
2023-09-15T05:07:01.416Z,2.13
2023-09-15T05:08:04.012Z,2.20
2023-09-15T05:09:07.151Z,2.15
2023-09-15T05:10:09.808Z,2.22
2023-09-15T05:11:12.387Z,1.77
2023-09-15T05:12:18.014Z,2.00
2023-09-15T05:13:21.384Z,2.08
2023-09-15T05:14:24.174Z,2.00
2023-09-15T05:15:26.527Z,2.63
2023-09-15T05:16:29.562Z,2.05
2023-09-15T05:17:33.190Z,2.05
2023-09-15T05:18:36.025Z,2.25
2023-09-15T05:19:38.824Z,2.42
2023-09-15T05:20:42.039Z,2.20
2023-09-15T05:21:44.444Z,1.65
2023-09-15T05:22:47.262Z,1.85
2023-09-15T05:23:49.872Z,1.98
2023-09-15T05:24:54.440Z,1.95
2023-09-15T05:25:58.889Z,1.90
2023-09-15T05:27:01.299Z,2.58
2023-09-15T05:28:04.393Z,1.48
2023-09-15T05:29:06.743Z,1.85
2023-09-15T05:30:11.485Z,1.67
2023-09-15T05:31:15.477Z,2.10
2023-09-15T05:32:18.176Z,2.03
2023-09-15T05:33:21.585Z,2.03
2023-09-15T05:34:25.159Z,1.80
2023-09-15T05:35:27.493Z,2.40
2023-09-15T05:36:30.181Z,2.05
2023-09-15T05:37:32.544Z,1.70
2023-09-15T05:38:35.064Z,1.65
2023-09-15T05:39:40.950Z,1.67
2023-09-15T05:40:43.506Z,1.85
2023-09-15T05:41:45.898Z,1.60
2023-09-15T05:42:48.215Z,2.10
2023-09-15T05:43:50.558Z,1.73
2023-09-15T05:44:56.067Z,2.53
2023-09-15T05:45:58.532Z,2.30
2023-09-15T05:47:01.628Z,1.90
2023-09-15T05:48:04.434Z,1.98
2023-09-15T05:49:06.818Z,1.60
2023-09-15T05:50:09.535Z,2.05
2023-09-15T05:51:11.953Z,1.77
2023-09-15T05:52:14.432Z,1.45
2023-09-15T05:53:16.802Z,1.60
2023-09-15T05:54:19.170Z,1.60
2023-09-15T05:55:21.671Z,1.73
2023-09-15T05:56:24.096Z,1.30
2023-09-15T05:57:26.658Z,1.63
2023-09-15T05:58:29.334Z,1.60
2023-09-15T05:59:31.686Z,1.60
2023-09-15T06:00:34.034Z,1.70
2023-09-15T06:01:36.631Z,1.73
2023-09-15T06:02:39.396Z,1.40
2023-09-15T06:03:43.383Z,1.50
2023-09-15T06:04:47.398Z,1.67
2023-09-15T06:05:49.880Z,1.50
2023-09-15T06:06:52.338Z,1.58
2023-09-15T06:07:55.210Z,1.40
2023-09-15T06:08:57.979Z,1.85
2023-09-15T06:10:00.547Z,1.77
2023-09-15T06:11:04.416Z,1.55
2023-09-15T06:12:06.854Z,1.60
2023-09-15T06:13:10.039Z,1.35
2023-09-15T06:14:12.497Z,1.33
2023-09-15T06:15:14.996Z,1.80
2023-09-15T06:16:17.716Z,1.27
2023-09-15T06:17:20.089Z,1.17
2023-09-15T06:18:22.704Z,1.33
2023-09-15T06:19:25.041Z,1.30
2023-09-15T06:20:28.035Z,1.30
2023-09-15T06:21:31.339Z,1.30
2023-09-15T06:22:35.179Z,1.40
2023-09-15T06:23:38.118Z,1.20
2023-09-15T06:24:40.525Z,1.42
2023-09-15T06:25:45.996Z,1.10
2023-09-15T06:26:49.096Z,1.30
2023-09-15T06:27:51.527Z,1.60
2023-09-15T06:28:56.601Z,1.02
2023-09-15T06:30:00.818Z,1.00
2023-09-15T06:31:03.691Z,1.27
2023-09-15T06:32:06.381Z,1.20
2023-09-15T06:33:08.859Z,1.42
2023-09-15T06:34:11.270Z,1.20
2023-09-15T06:35:14.579Z,1.20
2023-09-15T06:36:16.981Z,1.50
2023-09-15T06:37:19.859Z,1.20
2023-09-15T06:38:22.361Z,0.90
2023-09-15T06:39:25.073Z,1.13
2023-09-15T06:40:27.548Z,1.25
2023-09-15T06:41:30.043Z,1.00
2023-09-15T06:42:32.723Z,0.95
2023-09-15T06:43:35.246Z,1.17
2023-09-15T06:44:38.069Z,1.08
2023-09-15T06:45:40.415Z,0.70
2023-09-15T06:46:44.319Z,1.13
2023-09-15T06:47:47.120Z,0.88
2023-09-15T06:48:49.820Z,0.98
2023-09-15T06:49:52.222Z,0.80
2023-09-15T06:50:54.461Z,0.85
2023-09-15T06:51:57.037Z,1.27
2023-09-15T06:52:59.571Z,1.02
2023-09-15T06:54:01.958Z,1.33
2023-09-15T06:55:04.601Z,1.13
2023-09-15T06:56:07.136Z,1.08
2023-09-15T06:57:09.588Z,0.98
2023-09-15T06:58:11.951Z,1.02
2023-09-15T06:59:14.974Z,1.17
2023-09-15T07:00:17.468Z,0.85
2023-09-15T07:01:20.311Z,0.88
2023-09-15T07:02:22.840Z,0.90
2023-09-15T07:03:27.594Z,0.80
2023-09-15T07:04:33.132Z,0.90
2023-09-15T07:05:35.902Z,0.90
2023-09-15T07:06:38.496Z,0.95
2023-09-15T07:07:40.863Z,1.10
2023-09-15T07:08:43.289Z,1.02
2023-09-15T07:09:45.689Z,1.00
2023-09-15T07:10:52.625Z,1.02
2023-09-15T07:11:55.035Z,1.10
2023-09-15T07:12:57.340Z,1.25
2023-09-15T07:13:59.695Z,1.70
2023-09-15T07:15:05.029Z,0.85
2023-09-15T07:16:07.485Z,0.80
2023-09-15T07:17:09.908Z,1.00
2023-09-15T07:18:12.493Z,0.77
2023-09-15T07:19:14.954Z,0.82
2023-09-15T07:20:17.323Z,0.90
2023-09-15T07:21:19.720Z,0.90
2023-09-15T07:22:22.253Z,1.10
2023-09-15T07:23:26.300Z,0.82
2023-09-15T07:24:28.649Z,0.80
2023-09-15T07:25:31.166Z,0.90
2023-09-15T07:26:33.983Z,1.15
2023-09-15T07:27:38.918Z,1.20
2023-09-15T07:28:41.225Z,0.85
2023-09-15T07:29:43.659Z,0.95
2023-09-15T07:30:46.228Z,0.80
2023-09-15T07:31:48.691Z,0.80
2023-09-15T07:32:51.067Z,1.00
2023-09-15T07:33:53.484Z,1.10
2023-09-15T07:34:55.907Z,1.20
2023-09-15T07:36:02.216Z,1.10
2023-09-15T07:37:06.878Z,0.80
2023-09-15T07:38:09.508Z,1.10
2023-09-15T07:39:11.891Z,1.05
2023-09-15T07:40:14.777Z,1.00
2023-09-15T07:41:17.189Z,1.05
2023-09-15T07:42:19.550Z,1.10
2023-09-15T07:43:22.260Z,0.70
2023-09-15T07:44:24.711Z,0.85
2023-09-15T07:45:28.303Z,0.70
2023-09-15T07:46:30.984Z,0.88
2023-09-15T07:47:34.462Z,0.70
2023-09-15T07:48:37.040Z,1.15
2023-09-15T07:49:39.358Z,0.93
2023-09-15T07:50:41.781Z,0.95
2023-09-15T07:51:44.421Z,0.98
2023-09-15T07:52:47.855Z,1.05
2023-09-15T07:53:50.220Z,0.80
2023-09-15T07:54:53.410Z,0.70
2023-09-15T07:55:55.850Z,0.90
2023-09-15T07:56:58.478Z,0.90
2023-09-15T07:58:00.893Z,0.77
2023-09-15T07:59:04.413Z,1.00
2023-09-15T08:00:08.430Z,0.60
2023-09-15T08:01:17.180Z,0.65
2023-09-15T08:02:19.906Z,0.65
2023-09-15T08:03:22.352Z,1.10
2023-09-15T08:04:25.401Z,0.70
2023-09-15T08:05:27.779Z,0.70
2023-09-15T08:06:30.268Z,0.90
2023-09-15T08:07:32.941Z,0.70
2023-09-15T08:08:36.041Z,0.80
2023-09-15T08:09:38.502Z,0.88
2023-09-15T08:10:40.940Z,1.00
2023-09-15T08:11:43.717Z,0.80
2023-09-15T08:12:46.231Z,1.23
2023-09-15T08:13:48.809Z,0.93
2023-09-15T08:14:51.595Z,0.80
2023-09-15T08:15:54.253Z,1.35
2023-09-15T08:16:56.833Z,0.63
2023-09-15T08:17:59.690Z,1.08
2023-09-15T08:19:02.561Z,0.77
2023-09-15T08:20:05.572Z,0.75
2023-09-15T08:21:07.935Z,0.80
2023-09-15T08:22:10.644Z,0.38
2023-09-15T08:23:13.690Z,0.52
2023-09-15T08:24:16.081Z,0.52
2023-09-15T08:25:18.786Z,0.73
2023-09-15T08:26:21.305Z,0.63
2023-09-15T08:27:23.672Z,0.70
2023-09-15T08:28:26.292Z,0.40
2023-09-15T08:29:28.887Z,0.68
2023-09-15T08:30:31.775Z,0.80
2023-09-15T08:31:34.406Z,0.50
2023-09-15T08:32:37.175Z,0.60
2023-09-15T08:33:39.659Z,0.55
2023-09-15T08:34:42.431Z,0.60
2023-09-15T08:35:45.127Z,0.63
2023-09-15T08:36:47.547Z,0.57
2023-09-15T08:37:50.033Z,0.70
2023-09-15T08:38:53.356Z,0.90
2023-09-15T08:39:55.741Z,0.50
2023-09-15T08:41:02.776Z,0.57
2023-09-15T08:42:07.305Z,0.70
2023-09-15T08:43:09.682Z,0.82
2023-09-15T08:44:13.239Z,1.00
2023-09-15T08:45:16.086Z,0.90
2023-09-15T08:46:19.716Z,0.68
2023-09-15T08:47:22.481Z,1.00
2023-09-15T08:48:27.592Z,1.10
2023-09-15T08:49:31.165Z,0.75
2023-09-15T08:50:34.645Z,0.60
2023-09-15T08:51:38.977Z,0.73
2023-09-15T08:52:42.020Z,0.85
2023-09-15T08:53:45.391Z,0.80
2023-09-15T08:54:48.195Z,0.85
2023-09-15T08:55:50.780Z,0.52
2023-09-15T08:56:54.381Z,0.88
2023-09-15T08:57:59.032Z,0.60
2023-09-15T08:59:02.367Z,1.00
2023-09-15T09:00:09.268Z,0.73
2023-09-15T09:01:13.436Z,0.80
2023-09-15T09:02:16.781Z,0.70
2023-09-15T09:03:24.230Z,0.68
2023-09-15T09:04:27.795Z,0.50
2023-09-15T09:05:31.134Z,0.77
2023-09-15T09:06:36.303Z,0.52
2023-09-15T09:07:39.458Z,1.00
2023-09-15T09:08:47.690Z,0.77
2023-09-15T09:09:50.671Z,0.70
2023-09-15T09:10:53.271Z,0.50
2023-09-15T09:11:55.771Z,0.57
2023-09-15T09:12:58.213Z,0.50
2023-09-15T09:14:00.897Z,0.60
2023-09-15T09:15:03.353Z,0.40
2023-09-15T09:16:09.140Z,0.65
2023-09-15T09:17:13.310Z,0.70
2023-09-15T09:18:19.974Z,0.80
2023-09-15T09:19:22.374Z,0.70
2023-09-15T09:20:28.618Z,0.70
2023-09-15T09:21:32.372Z,0.70
2023-09-15T09:22:35.954Z,0.80
2023-09-15T09:23:38.972Z,0.90
2023-09-15T09:24:41.313Z,0.73
2023-09-15T09:25:43.793Z,0.70
2023-09-15T09:26:56.193Z,0.80
2023-09-15T09:27:58.717Z,0.70
2023-09-15T09:29:01.162Z,1.02
2023-09-15T09:30:04.817Z,0.82
2023-09-15T09:31:07.190Z,0.80
2023-09-15T09:32:17.161Z,1.15
2023-09-15T09:33:23.321Z,0.70
2023-09-15T09:34:44.257Z,0.60
2023-09-15T09:35:48.422Z,0.73
2023-09-15T09:36:51.396Z,0.60
2023-09-15T09:37:54.870Z,0.60
2023-09-15T09:38:57.343Z,0.60
2023-09-15T09:40:00.584Z,0.68
2023-09-15T09:41:05.283Z,0.50
2023-09-15T09:42:07.860Z,0.70
2023-09-15T09:43:13.774Z,0.47
2023-09-15T09:44:16.385Z,0.50
2023-09-15T09:45:19.006Z,0.88
2023-09-15T09:46:22.781Z,0.75
2023-09-15T09:47:27.333Z,0.60
2023-09-15T09:48:30.024Z,0.60
2023-09-15T09:49:32.625Z,0.60
2023-09-15T09:50:36.402Z,0.85
2023-09-15T09:51:39.223Z,0.70
2023-09-15T09:52:42.575Z,0.93
2023-09-15T09:53:45.018Z,1.23
2023-09-15T09:54:51.100Z,0.77
2023-09-15T09:55:55.017Z,0.98
2023-09-15T09:56:57.351Z,0.75
2023-09-15T09:58:06.400Z,0.70
2023-09-15T09:59:16.553Z,0.70
2023-09-15T10:00:23.441Z,1.40
2023-09-15T10:01:26.040Z,0.80
2023-09-15T10:02:29.269Z,0.90
2023-09-15T10:03:31.961Z,1.15
2023-09-15T10:04:35.182Z,0.65
2023-09-15T10:05:38.508Z,0.70
2023-09-15T10:06:41.347Z,1.00
2023-09-15T10:07:46.943Z,0.70
2023-09-15T10:08:49.817Z,0.50
2023-09-15T10:09:52.566Z,0.60
2023-09-15T10:10:55.421Z,0.50
2023-09-15T10:11:58.212Z,0.75
2023-09-15T10:13:01.643Z,0.70
2023-09-15T10:14:05.692Z,0.80
2023-09-15T10:15:08.993Z,0.60
2023-09-15T10:16:11.473Z,0.60
2023-09-15T10:17:14.452Z,0.70
2023-09-15T10:18:18.300Z,0.77
2023-09-15T10:19:20.796Z,0.68
2023-09-15T10:20:23.823Z,1.00
2023-09-15T10:21:27.418Z,0.90
2023-09-15T10:22:30.270Z,0.73
2023-09-15T10:23:32.710Z,0.73
2023-09-15T10:24:35.246Z,0.70
2023-09-15T10:25:54.605Z,0.63
2023-09-15T10:26:56.966Z,0.80
2023-09-15T10:27:59.483Z,0.70
2023-09-15T10:29:03.250Z,0.73
2023-09-15T10:30:06.504Z,0.60
2023-09-15T10:31:12.731Z,0.70
2023-09-15T10:32:20.139Z,0.50
2023-09-15T10:33:29.183Z,0.63
2023-09-15T10:34:33.644Z,0.50
2023-09-15T10:35:36.085Z,0.70
2023-09-15T10:36:42.464Z,0.70
2023-09-15T10:37:48.854Z,0.70
2023-09-15T10:38:51.593Z,1.00
2023-09-15T10:40:00.599Z,0.80
2023-09-15T10:41:06.987Z,0.80
2023-09-15T10:42:10.342Z,0.70
2023-09-15T10:43:12.908Z,0.90
2023-09-15T10:44:15.322Z,0.73
2023-09-15T10:45:18.089Z,0.80
2023-09-15T10:46:20.463Z,0.70
2023-09-15T10:47:22.865Z,0.85
2023-09-15T10:48:42.438Z,1.10
2023-09-15T10:49:55.209Z,0.80
2023-09-15T10:51:06.880Z,0.80
2023-09-15T10:52:10.272Z,0.70
2023-09-15T10:53:13.848Z,0.80
2023-09-15T10:54:17.560Z,0.75
2023-09-15T10:55:19.952Z,0.55
2023-09-15T10:56:22.383Z,0.50
2023-09-15T10:57:25.221Z,0.70
2023-09-15T10:58:28.721Z,0.63
2023-09-15T10:59:31.195Z,0.70
2023-09-15T11:00:34.112Z,0.50
2023-09-15T11:01:38.312Z,0.70
2023-09-15T11:02:41.075Z,0.77
2023-09-15T11:03:44.132Z,0.80
2023-09-15T11:04:47.191Z,0.70
2023-09-15T11:05:50.575Z,1.10
2023-09-15T11:06:54.552Z,1.38
2023-09-15T11:07:57.720Z,1.40
2023-09-15T11:09:00.724Z,1.00
2023-09-15T11:10:03.910Z,0.80
2023-09-15T11:11:10.415Z,0.70
2023-09-15T11:12:12.983Z,0.60
2023-09-15T11:13:16.583Z,1.10
2023-09-15T11:14:21.616Z,0.75
2023-09-15T11:15:23.979Z,0.82
2023-09-15T11:16:29.740Z,0.80
2023-09-15T11:17:34.147Z,0.50
2023-09-15T11:18:38.037Z,0.47
2023-09-15T11:19:40.412Z,0.75
2023-09-15T11:20:42.958Z,0.80
2023-09-15T11:21:49.341Z,0.60
2023-09-15T11:22:58.596Z,0.70
2023-09-15T11:24:00.894Z,1.40
2023-09-15T11:25:16.575Z,0.80
2023-09-15T11:26:28.251Z,0.88
2023-09-15T11:27:34.397Z,1.00
2023-09-15T11:28:37.078Z,0.82
2023-09-15T11:29:46.142Z,0.80
2023-09-15T11:30:53.618Z,0.90
2023-09-15T11:31:57.862Z,0.77
2023-09-15T11:33:06.702Z,0.82
2023-09-15T11:34:10.060Z,0.57
2023-09-15T11:35:13.808Z,0.80
2023-09-15T11:36:18.520Z,0.80
2023-09-15T11:37:21.082Z,0.57
2023-09-15T11:38:24.714Z,0.77
2023-09-15T11:39:27.693Z,0.98
2023-09-15T11:40:30.300Z,0.93
2023-09-15T11:41:37.046Z,0.80
2023-09-15T11:42:39.369Z,1.20
2023-09-15T11:43:41.989Z,0.88
2023-09-15T11:44:44.812Z,1.30
2023-09-15T11:45:47.379Z,0.82
2023-09-15T11:46:53.778Z,1.02
2023-09-15T11:47:57.104Z,1.25
2023-09-15T11:48:59.636Z,0.90
2023-09-15T11:50:06.761Z,1.30
2023-09-15T11:51:12.565Z,1.23
2023-09-15T11:52:14.987Z,0.70
2023-09-15T11:53:25.876Z,1.10
2023-09-15T11:54:28.614Z,1.20
2023-09-15T11:55:31.734Z,0.95
2023-09-15T11:56:34.436Z,1.17
2023-09-15T11:57:36.951Z,0.80
2023-09-15T11:58:39.253Z,0.93
2023-09-15T11:59:41.719Z,0.77
2023-09-15T12:00:44.053Z,0.98
2023-09-15T12:01:47.599Z,0.98
2023-09-15T12:02:51.441Z,1.23
2023-09-15T12:03:54.497Z,1.33
2023-09-15T12:04:58.630Z,0.80
2023-09-15T12:06:03.070Z,0.73
2023-09-15T12:07:06.992Z,1.10
2023-09-15T12:08:09.775Z,0.80
2023-09-15T12:09:13.672Z,1.15
2023-09-15T12:10:17.677Z,0.73
2023-09-15T12:11:21.087Z,1.10
2023-09-15T12:12:24.014Z,0.93
2023-09-15T12:13:26.487Z,0.75
2023-09-15T12:14:28.847Z,1.20
2023-09-15T12:15:34.019Z,0.90
2023-09-15T12:16:37.396Z,1.23
2023-09-15T12:17:46.381Z,1.00
2023-09-15T12:18:51.366Z,1.08
2023-09-15T12:20:00.626Z,0.95
2023-09-15T12:21:03.000Z,1.13
2023-09-15T12:22:05.288Z,1.38
2023-09-15T12:23:14.084Z,1.17
2023-09-15T12:24:17.708Z,1.20
2023-09-15T12:25:20.457Z,1.15
2023-09-15T12:26:25.739Z,0.80
2023-09-15T12:27:29.102Z,0.98
2023-09-15T12:28:31.630Z,0.70
2023-09-15T12:29:34.138Z,1.27
2023-09-15T12:30:37.499Z,0.93
2023-09-15T12:31:50.747Z,0.52
2023-09-15T12:32:54.708Z,1.02
2023-09-15T12:33:57.579Z,0.82
2023-09-15T12:35:00.427Z,0.88
2023-09-15T12:36:05.708Z,0.95
2023-09-15T12:37:10.137Z,1.10
2023-09-15T12:38:13.160Z,0.85
2023-09-15T12:39:16.100Z,0.77
2023-09-15T12:40:18.653Z,0.85
2023-09-15T12:41:21.416Z,0.90
2023-09-15T12:42:24.158Z,1.23
2023-09-15T12:43:26.581Z,0.73
2023-09-15T12:44:28.932Z,0.90
2023-09-15T12:45:31.437Z,0.80
2023-09-15T12:46:34.416Z,0.98
2023-09-15T12:47:37.356Z,1.02
2023-09-15T12:48:39.844Z,0.90
2023-09-15T12:49:42.551Z,0.95
2023-09-15T12:50:44.877Z,0.90
2023-09-15T12:51:47.482Z,1.10
2023-09-15T12:52:49.891Z,0.85
2023-09-15T12:53:52.468Z,0.93
2023-09-15T12:54:54.807Z,0.95
2023-09-15T12:55:58.255Z,0.80
2023-09-15T12:57:00.649Z,0.98
2023-09-15T12:58:03.152Z,0.68
2023-09-15T12:59:05.772Z,0.80
2023-09-15T13:00:08.537Z,1.00
2023-09-15T13:01:10.966Z,1.40
2023-09-15T13:02:14.374Z,0.90
2023-09-15T13:03:17.626Z,1.05
2023-09-15T13:04:21.560Z,1.13
2023-09-15T13:05:24.104Z,0.93
2023-09-15T13:06:26.556Z,1.10
2023-09-15T13:07:28.942Z,1.20
2023-09-15T13:08:31.606Z,1.27
2023-09-15T13:09:34.016Z,1.13
2023-09-15T13:10:36.383Z,1.30
2023-09-15T13:11:38.700Z,0.95
2023-09-15T13:12:41.711Z,1.10
2023-09-15T13:13:44.128Z,1.13
2023-09-15T13:14:46.524Z,1.80
2023-09-15T13:15:48.929Z,1.15
2023-09-15T13:16:51.449Z,0.80
2023-09-15T13:17:53.832Z,0.88
2023-09-15T13:18:56.382Z,0.70
2023-09-15T13:20:00.673Z,0.80
2023-09-15T13:21:03.175Z,1.10
2023-09-15T13:22:05.820Z,1.15
2023-09-15T13:23:08.966Z,0.80
2023-09-15T13:24:11.422Z,0.95
2023-09-15T13:25:13.880Z,1.10
2023-09-15T13:26:16.603Z,1.30
2023-09-15T13:27:19.024Z,1.20
2023-09-15T13:28:21.455Z,1.02
2023-09-15T13:29:26.834Z,0.93
2023-09-15T13:30:29.394Z,0.77
2023-09-15T13:31:32.120Z,1.27
2023-09-15T13:32:34.650Z,1.83
2023-09-15T13:33:37.249Z,1.42
2023-09-15T13:34:39.619Z,1.05
2023-09-15T13:35:42.140Z,1.05
2023-09-15T13:36:44.877Z,0.93
2023-09-15T13:37:47.246Z,1.10
2023-09-15T13:38:51.032Z,1.42
2023-09-15T13:39:53.479Z,1.30
2023-09-15T13:40:55.899Z,0.90
2023-09-15T13:41:58.569Z,1.25
2023-09-15T13:43:01.109Z,1.23
2023-09-15T13:44:04.712Z,1.05
2023-09-15T13:45:08.257Z,1.10
2023-09-15T13:46:10.787Z,1.25
2023-09-15T13:47:13.582Z,1.40
2023-09-15T13:48:17.061Z,1.20
2023-09-15T13:49:19.512Z,1.95
2023-09-15T13:50:21.867Z,1.38
2023-09-15T13:52:31.853Z,1.52
2023-09-15T13:53:38.035Z,1.30
2023-09-15T13:54:40.732Z,1.58
2023-09-15T13:55:48.424Z,2.13
2023-09-15T13:56:51.400Z,0.75
2023-09-15T13:57:53.700Z,0.98
2023-09-15T13:58:56.246Z,1.02
2023-09-15T13:59:58.740Z,1.10
2023-09-15T14:01:03.078Z,1.48
2023-09-15T14:02:05.623Z,1.08
2023-09-15T14:03:08.140Z,1.40
2023-09-15T14:04:11.681Z,1.45
2023-09-15T14:05:14.161Z,1.13
2023-09-15T14:06:17.512Z,1.00
2023-09-15T14:07:19.856Z,1.45
2023-09-15T14:08:22.431Z,1.77